Covington, OH

6:09 AM EDT on October 23, 2014 (GMT -0400)
Darke County | Change Station
CLOSE
Current Station
Airport
Location: Versailles,
Elevation: 1007 ft
Nearby Weather Stations

Elev 1007 ft 40.20 °N, 84.53 °W | Updated 34 minutes ago

Clear
Clear
34 °F
Feels Like 31 °F
N
4
Wind Variable Wind from North

Today
High -- | Low -- °F
--% Chance of Precip.
Yesterday
High -- | Low -- °F
Precip. -- in
7:56 AM 6:46 PM
Waning Crescent, 0% visible
Pressure 30.24 in
Visibility 2.5 miles
Clouds Clear
Windchill 31 °F
Dew Point 34 °F
Humidity 100%
Rainfall 0.00 in
Snow Depth Not available.
UV 0 out of 12
Pollen 1.20 out of 12
Ozone Good
PM2.5 Moderate
Flu Activity Sporadic
METAR KVES 230935Z AUTO 35003KT 2 1/2SM BR CLR 01/01 A3024 RMK AO2

More Conditions Fewer Conditions

Pressure 30.24 in
Visibility 2.5 miles
Clouds Clear
Windchill 31 °F
Dew Point 34 °F
Humidity 100%
Rainfall 0.00 in
Snow Depth Not available.
UV 0 out of 12
Pollen 1.20 out of 12
Ozone Good
PM2.5 Moderate
Flu Activity Sporadic
METAR KVES 230935Z AUTO 35003KT 2 1/2SM BR CLR 01/01 A3024 RMK AO2

More Conditions Fewer Conditions

10-Day Weather Forecast

Almanac

Astronomy

Oct. 23, 2014 Rise Set
Actual Time 7:56 AM EDT 6:46 PM EDT
Civil Twilight 7:28 AM EDT 7:13 PM EDT
Nautical Twilight 6:57 AM EDT 7:45 PM EDT
Astronomical Twilight 6:25 AM EDT 8:16 PM EDT
Moon 7:35 AM EDT 6:47 PM EDT
Length of Visible Light 11h 44m
Length of Day
10h 49m
Tomorrow will be 2m 27s shorter.
Waning Crescent, 0% of the Moon is Illuminated
Today
Waning Crescent
Oct 23
New
Oct 30
First Quarter
Nov 6
Full
Nov 14
Last Quarter

Today's Extremes

State Highs State Lows

Community

WunderPhotos

Upload Photos

1,764,201 photos uploaded!

Nearby

Air Quality

  Air Quality AQ Index Pollutant
Yesterday Good
PM2.5
Yesterday Good
OZONE
Current Moderate
PM2.5
Current Good
OZONE
Thursday Moderate
PM2.5
Thursday Good
OZONE
Friday Good
PM2.5
Friday Good
OZONE
Saturday Good
PM2.5
Saturday Good
OZONE
Sunday Good
PM2.5
Sunday Good
OZONE

Snow Depth

Station Depth Elevation
No new snow has been reported.

Earthquake Activity

City Distance Mag. Time & Date
No recent earthquake activity has been reported nearby.
Minimum magnitude displayed is 2.5.

Coastal Water Temperatures

Place Temperature
No Stations Reporting

Nearby Weather Stations